• Join FlightAware (Why Join?)
  • Login
  • US Flag 
07:45AM EDT


 

Airport Tracker/Info


-or-


 

Live Flight TrackerFlight Track Log ✈ N487VC ✈ 20-Apr-2013 ✈ KHPN - KPVD

Flight Track Log - Related Links

Times and Time Zones

All times are in EDT time to prevent confusion due to time zone crossing. See the N487VC flight status page for this flight to view local times or setup timezone preferences in your user account.

Time Position Orientation Groundspeed Altitude Reporting Facility
EDT Latitude Longitude Course Direction KTS MPH feet Rate Location/Type
07:46AM 41.0833 -73.7667 66° East 145 167 2,700  Level New York TRACON
07:47AM 41.0833 -73.8167 270° West 135 155 5,100 2,040 Climbing New York TRACON
07:48AM 41.1167 -73.8500 323° Northwest 179 206 7,000 1,740 Climbing New York TRACON
07:49AM 41.1500 -73.7667 62° Northeast 252 290 8,600 1,620 Climbing New York TRACON
07:50AM 41.1833 -73.7000 56° Northeast 252 290 10,300 1,440 Climbing New York TRACON
07:51AM 41.2167 -73.6333 56° Northeast 251 289 11,400 1,260 Climbing New York TRACON
07:52AM 41.2074 -73.2280 66° East  Level FlightAware Approximate
07:52AM 41.2500 -73.5333 66° East 265 305 12,900  Level New York TRACON
07:55AM 41.2861 -73.3406 76° East 278 320 14,900 600 Climbing Boston Center
07:56AM 41.2911 -73.2192 87° East 288 331 14,900  Level Boston Center
07:57AM 41.2939 -73.1114 88° East 309 356 14,900  Level Boston Center
07:58AM 41.2986 -72.9844 87° East 309 356 14,900  Level Boston Center
07:59AM 41.3033 -72.8794 87° East 309 356 14,900  Level Boston Center
08:00AM 41.3081 -72.7469 87° East 315 362 14,900  Level Boston Center
08:00AM 41.3103 -72.6750 88° East 319 367 14,900  Level Boston Center
08:01AM 41.3103 -72.6667 90° East 310 357 14,900 -600 Level Boston Center
08:02AM 41.3144 -72.5119 88° East 310 357 14,100 -1,200 Descending Boston Center
08:03AM 41.3189 -72.3931 87° East 315 362 12,600 -1,380 Descending Boston Center
08:04AM 41.3228 -72.2825 87° East 315 362 11,400 -1,200 Descending Boston Center
08:05AM 41.3289 -72.1636 86° East 294 338 10,000 -660 Descending Boston Center
08:06AM 41.3808 -72.0750 52° Northeast 292 336 10,000  Level Boston Center
08:07AM 41.4367 -72.0053 43° Northeast 297 342 10,000 -720 Level Boston Center
08:08AM 41.4969 -71.9272 44° Northeast 304 350 8,700 -1,380 Descending Boston Center
08:09AM 41.5589 -71.8436 45° Northeast 316 364 7,300 -1,380 Descending Boston Center
08:10AM 41.6250 -71.7542 45° Northeast 303 349 5,900 -1,140 Descending Boston Center
08:11AM 41.6831 -71.6814 43° Northeast 293 337 5,000 -480 Descending Boston Center
08:12AM 41.7325 -71.6083 48° Northeast 277 319 5,000  Level Boston Center
08:13AM 41.7800 -71.5464 44° Northeast 273 314 5,000 -660 Level Boston Center
08:14AM 41.8294 -71.4761 47° Northeast 249 287 3,800 -1,320 Descending Boston Center
08:15AM 41.8725 -71.4114 48° Northeast 231 266 2,400 -900 Descending Boston Center
08:16AM 41.8928 -71.3497 66° East 212 244 2,100 -180 Descending Boston Center
08:17AM 41.8531 -71.3197 151° Southeast 190 219 2,100  Level Boston Center
08:18AM 41.8158 -71.3536 214° Southwest 151 174 2,100 -360 Level Boston Center
08:19AM 41.7847 -71.3794 212° Southwest 133 153 1,400 -720 Descending Boston Center
08:20AM 41.7536 -71.4022 209° Southwest 132 152 700 -720 Descending Boston Center